Time;durP1;ratioP1;P1;durP2;ratioP2;P2;SDS_P1;SDS_P2;PMS_P1;PMS_P2;Temp;Humidity;BMP_temperature;BMP_pressure;BME280_temperature;BME280_humidity;BME280_pressure;Samples;Min_cycle;Max_cycle;Signal;HPM_P1;HPM_P2
2023/07/04 05:00:53;;;;;;;;;3.67;3.67;;;;;20.19;51.97;54122.19;5691248;23;45894;-81
2023/07/04 05:03:18;;;;;;;;;4.33;4.00;;;;;20.44;52.29;53629.28;4928411;28;45524;-82
2023/07/04 05:05:43;;;;;;;;;9.67;6.00;;;;;20.55;52.67;52908.06;4921422;28;45525;-81
2023/07/04 05:08:09;;;;;;;;;4.67;2.67;;;;;20.20;52.06;52745.66;4930967;28;45462;-82
2023/07/04 05:10:34;;;;;;;;;3.00;3.00;;;;;20.62;52.42;52652.28;4926348;28;45746;-82
2023/07/04 05:12:59;;;;;;;;;1.33;1.00;;;;;20.17;52.43;52547.69;4927745;28;45340;-82
2023/07/04 05:15:24;;;;;;;;;4.00;4.00;;;;;20.60;52.67;51786.69;4934515;28;47481;-82
2023/07/04 05:17:50;;;;;;;;;5.33;4.33;;;;;20.59;52.15;51844.66;4928114;28;45650;-82
2023/07/04 05:20:22;;;;;;;;;4.33;3.33;;;;;20.59;52.80;51076.91;4927718;28;46808;-82
2023/07/04 05:22:48;;;;;;;;;4.00;4.00;;;;;20.65;52.43;50739.44;4925918;28;45543;-81
2023/07/04 05:25:14;;;;;;;;;4.33;4.33;;;;;20.67;52.64;50412.22;4928836;28;45802;-82
2023/07/04 05:27:40;;;;;;;;;3.33;3.33;;;;;20.24;52.26;50407.25;4932881;28;45552;-82
2023/07/04 05:30:06;;;;;;;;;6.50;4.00;;;;;20.73;52.56;50289.09;4924916;28;45789;-82
2023/07/04 05:32:31;;;;;;;;;6.33;3.00;;;;;20.63;52.64;49831.03;4933351;28;45420;-81
2023/07/04 05:34:57;;;;;;;;;4.67;4.00;;;;;20.64;52.76;49115.75;4925857;28;45580;-82
2023/07/04 05:37:22;;;;;;;;;6.33;3.67;;;;;20.40;52.62;48742.31;4926292;28;45471;-82
2023/07/04 05:39:50;;;;;;;;;5.33;3.67;;;;;20.58;52.67;48546.09;4926796;28;46252;-81
2023/07/04 05:42:15;;;;;;;;;3.67;3.67;;;;;20.74;52.95;48289.69;4923701;28;45735;-82
2023/07/04 05:44:40;;;;;;;;;5.33;4.33;;;;;20.48;53.46;47616.06;4907726;28;45508;-82
2023/07/04 05:47:06;;;;;;;;;8.00;3.33;;;;;20.41;53.12;47562.56;4924273;28;46883;-82
2023/07/04 05:49:31;;;;;;;;;4.00;4.00;;;;;20.20;52.97;46444.84;4926072;28;45620;-82
2023/07/04 05:51:56;;;;;;;;;4.00;3.33;;;;;20.69;52.83;46510.38;4910592;28;45715;-82
2023/07/04 05:54:22;;;;;;;;;5.00;4.33;;;;;20.80;53.27;45116.53;4927097;28;45390;-82
2023/07/04 05:56:52;;;;;;;;;5.00;3.33;;;;;20.93;53.34;45086.78;4931918;28;46624;-82
2023/07/04 05:59:17;;;;;;;;;4.00;4.00;;;;;20.90;52.64;44750.00;4918547;28;46456;-82
2023/07/04 06:01:45;;;;;;;;;5.00;5.00;;;;;21.10;53.25;44412.59;4902829;28;65219;-82
2023/07/04 06:04:12;;;;;;;;;7.00;4.00;;;;;21.16;52.97;44505.47;4915226;28;45869;-82
2023/07/04 06:06:41;;;;;;;;;6.33;5.33;;;;;21.20;52.82;44695.72;4918385;28;45491;-83
2023/07/04 06:09:09;;;;;;;;;5.00;5.00;;;;;21.25;52.96;44614.13;4917298;28;47122;-81
2023/07/04 06:12:26;;;;;;;;;1.67;1.67;;;;;20.27;52.61;44346.94;4917062;28;46704;-84
2023/07/04 06:15:06;;;;;;;;;4.00;3.00;;;;;20.75;52.78;44172.34;4827316;29;45542;-84
2023/07/04 06:17:31;;;;;;;;;6.67;5.33;;;;;20.24;52.54;43738.84;4835380;29;45367;-82
2023/07/04 06:20:23;;;;;;;;;4.33;3.00;;;;;21.32;52.43;43617.19;4840470;29;45602;-82
2023/07/04 06:22:48;;;;;;;;;3.00;3.00;;;;;21.18;52.80;43716.38;4836143;29;45590;-82
2023/07/04 06:25:17;;;;;;;;;4.67;3.00;;;;;21.25;52.49;43467.88;4836398;29;45646;-82
2023/07/04 06:27:44;;;;;;;;;9.00;6.00;;;;;21.32;52.59;43849.34;4835091;29;45467;-81
2023/07/04 06:30:11;;;;;;;;;4.67;3.33;;;;;21.24;53.00;42689.16;4822623;29;46889;-82
2023/07/04 06:32:36;;;;;;;;;5.00;4.00;;;;;21.13;52.96;42927.00;4836375;29;45963;-82
2023/07/04 06:35:01;;;;;;;;;11.33;10.67;;;;;20.83;53.25;42002.56;4834026;29;45504;-84
2023/07/04 06:37:26;;;;;;;;;4.33;4.33;;;;;21.47;52.98;41589.06;4833311;29;45532;-84
2023/07/04 06:40:42;;;;;;;;;6.33;3.67;;;;;21.63;52.87;40585.31;4832660;29;45882;-84
2023/07/04 06:43:08;;;;;;;;;3.00;3.00;;;;;20.98;52.37;40397.81;4835394;29;45775;-84
2023/07/04 06:45:37;;;;;;;;;6.00;4.00;;;;;21.46;52.72;40693.63;4839347;29;45806;-85
2023/07/04 06:48:05;;;;;;;;;7.00;4.00;;;;;21.93;52.03;41015.56;4826057;29;45717;-85
2023/07/04 06:50:30;;;;;;;;;9.00;5.00;;;;;21.20;52.11;41423.00;4867212;28;48734;-83
2023/07/04 06:52:56;;;;;;;;;3.33;3.33;;;;;21.57;51.99;41066.91;4936162;28;45440;-83
2023/07/04 06:55:21;;;;;;;;;7.00;4.00;;;;;22.06;52.18;41085.78;4919341;28;45471;-83
2023/07/04 06:57:47;;;;;;;;;4.67;4.00;;;;;22.14;51.88;41714.81;4903310;28;45382;-85
2023/07/04 07:00:39;;;;;;;;;7.33;4.00;;;;;22.30;51.23;42695.38;4913357;28;46335;-87
2023/07/04 07:03:04;;;;;;;;;6.67;4.67;;;;;22.02;51.05;42259.63;4913159;28;45422;-84
2023/07/04 07:05:29;;;;;;;;;4.67;4.67;;;;;22.21;50.81;43411.16;4910034;28;45407;-84
2023/07/04 07:13:40;;;;;;;;;6.00;4.00;;;;;22.48;51.47;39678.88;4948711;23;71500;-83
2023/07/04 07:16:19;;;;;;;;;4.00;3.00;;;;;22.61;51.11;40281.69;4939011;28;45384;-83
2023/07/04 07:18:45;;;;;;;;;9.67;7.00;;;;;22.29;51.64;39537.47;4936481;28;45850;-83
2023/07/04 07:21:14;;;;;;;;;26.33;21.00;;;;;22.60;52.31;37089.84;4935532;28;46404;-83
2023/07/04 07:23:40;;;;;;;;;6.33;5.00;;;;;22.38;50.88;40121.19;4937445;28;45593;-83
2023/07/04 07:26:09;;;;;;;;;4.00;4.00;;;;;21.88;51.29;40618.59;4937605;28;45392;-83
2023/07/04 07:28:39;;;;;;;;;6.00;4.67;;;;;21.55;51.47;39452.22;4937223;28;45466;-84
2023/07/04 07:31:14;;;;;;;;;6.67;6.00;;;;;22.63;50.39;42247.84;4930892;28;45721;-85
2023/07/04 07:33:42;;;;;;;;;4.00;3.67;;;;;21.94;50.62;42821.06;4928939;28;45889;-83
2023/07/04 07:36:19;;;;;;;;;5.00;4.67;;;;;22.80;50.18;42793.53;4939186;28;45558;-85
2023/07/04 07:38:46;;;;;;;;;6.33;5.33;;;;;22.05;50.05;44151.25;4931979;28;45985;-84
2023/07/04 07:41:12;;;;;;;;;5.67;4.33;;;;;22.46;48.97;46204.44;4936414;28;46508;-85
2023/07/04 07:43:38;;;;;;;;;8.00;5.67;;;;;22.85;49.06;46651.25;4915169;28;45594;-83
2023/07/04 07:46:13;;;;;;;;;6.67;5.67;;;;;22.29;48.97;46547.72;4921285;28;45450;-82
2023/07/04 07:48:38;;;;;;;;;3.33;3.33;;;;;22.92;48.41;47703.00;4935024;28;45744;-84
2023/07/04 07:51:06;;;;;;;;;5.67;5.67;;;;;22.21;48.30;48539.91;4929407;28;46574;-83
2023/07/04 07:54:02;;;;;;;;;4.33;4.00;;;;;23.04;48.95;47722.91;4925474;28;45498;-80
2023/07/04 07:56:48;;;;;;;;;7.00;4.33;;;;;23.10;47.19;51054.22;4929977;28;45479;-81
2023/07/04 07:59:14;;;;;;;;;4.67;4.67;;;;;23.10;46.30;52767.44;4933440;28;45539;-83
2023/07/04 08:01:39;;;;;;;;;3.67;2.33;;;;;22.48;44.52;55518.00;4934766;28;46433;-84
2023/07/04 08:04:05;;;;;;;;;1.67;1.67;;;;;23.04;43.60;57654.53;4931880;28;45546;-82
2023/07/04 08:06:36;;;;;;;;;3.00;2.67;;;;;23.26;43.34;58760.50;4935581;28;45615;-83
2023/07/04 08:09:36;;;;;;;;;2.00;2.00;;;;;23.32;44.27;58335.97;4919312;28;45932;-84
2023/07/04 08:12:05;;;;;;;;;2.67;2.00;;;;;22.97;43.92;58801.94;4926872;28;46352;-83
2023/07/04 08:14:30;;;;;;;;;3.00;1.67;;;;;23.22;48.60;48900.19;4935699;28;45431;-83
2023/07/04 08:16:56;;;;;;;;;7.33;5.00;;;;;22.97;44.73;55338.53;4936081;28;45609;-82
2023/07/04 08:19:27;;;;;;;;;4.00;4.00;;;;;23.71;45.08;55779.16;4936767;28;45576;-84
2023/07/04 08:21:54;;;;;;;;;5.00;3.67;;;;;23.80;44.15;56654.22;4938059;28;46153;-85
2023/07/04 08:24:19;;;;;;;;;4.00;3.00;;;;;23.50;44.77;56595.59;4937258;28;45522;-88
2023/07/04 08:26:46;;;;;;;;;2.00;2.00;;;;;23.91;44.06;57165.41;4937933;28;45428;-86
2023/07/04 08:29:12;;;;;;;;;4.67;3.33;;;;;23.30;43.87;57454.00;4930679;28;45525;-86
2023/07/04 08:31:38;;;;;;;;;3.33;3.00;;;;;23.53;43.96;57521.66;4928063;28;45478;-85
2023/07/04 08:34:06;;;;;;;;;4.00;3.00;;;;;23.98;45.01;57317.78;4934758;28;45945;-87
2023/07/04 08:36:34;;;;;;;;;4.00;4.00;;;;;24.16;45.57;56548.53;4917264;28;45489;-86
2023/07/04 08:43:08;;;;;;;;;8.00;4.33;;;;;24.52;43.84;57329.53;4836410;29;45915;-85
2023/07/04 08:45:33;;;;;;;;;3.00;3.00;;;;;23.76;44.31;56131.25;4835117;29;45961;-86
2023/07/04 08:48:28;;;;;;;;;6.00;3.67;;;;;25.31;43.27;56286.03;4839116;29;46007;-85
2023/07/04 08:51:02;;;;;;;;;5.33;3.00;;;;;25.75;42.46;57084.66;4836350;29;45837;-84
2023/07/04 08:53:45;;;;;;;;;10.00;6.67;;;;;25.30;41.69;57828.84;4831558;29;46189;-85
2023/07/04 08:56:21;;;;;;;;;5.00;3.00;;;;;25.97;40.74;59386.38;4831692;29;45600;-85
2023/07/04 09:02:23;;;;;;;;;4.33;3.00;;;;;26.73;38.84;61761.44;4960157;23;45442;-86
2023/07/04 09:05:01;;;;;;;;;7.00;3.00;;;;;26.81;38.05;62647.06;4926250;28;46498;-87
2023/07/04 09:07:39;;;;;;;;;4.67;3.00;;;;;26.48;38.53;62948.28;4918873;28;45484;-87
2023/07/04 09:10:32;;;;;;;;;2.67;2.67;;;;;27.03;37.27;63353.28;4920041;28;45600;-87
2023/07/04 09:12:59;;;;;;;;;2.33;2.33;;;;;27.18;37.37;63608.22;4934808;28;45553;-87
2023/07/04 09:15:35;;;;;;;;;2.00;2.00;;;;;27.49;36.46;63942.22;4925810;28;45513;-87
2023/07/04 09:18:38;;;;;;;;;4.67;3.33;;;;;27.54;36.31;64379.13;4936573;28;45483;-86
2023/07/04 09:21:11;;;;;;;;;4.00;2.33;;;;;27.38;36.46;64654.41;4919168;28;45523;-87
2023/07/04 09:23:37;;;;;;;;;3.00;3.00;;;;;27.22;36.45;64727.22;4937012;28;45518;-86
2023/07/04 09:26:03;;;;;;;;;2.67;2.67;;;;;27.24;37.04;64834.69;4936808;28;46517;-86
2023/07/04 09:28:30;;;;;;;;;4.00;3.33;;;;;27.34;36.63;64891.94;4919268;28;46823;-87
2023/07/04 09:30:58;;;;;;;;;3.00;2.00;;;;;27.63;36.73;64339.66;4936328;28;45541;-87
2023/07/04 09:33:27;;;;;;;;;4.00;3.67;;;;;28.79;35.21;64318.50;4937281;28;45475;-86
2023/07/04 09:35:55;;;;;;;;;4.33;3.33;;;;;29.65;35.04;64575.25;4919504;28;47438;-87
2023/07/04 09:38:20;;;;;;;;;4.67;3.00;;;;;29.50;33.86;65211.94;4936766;28;45789;-87
2023/07/04 09:40:52;;;;;;;;;2.00;2.00;;;;;29.16;34.15;65577.19;4923562;28;45453;-87
2023/07/04 09:43:27;;;;;;;;;3.00;3.00;;;;;29.12;34.65;65874.72;4936874;28;45756;-87
2023/07/04 09:46:10;;;;;;;;;8.67;5.00;;;;;28.96;35.39;65800.63;4934261;28;45498;-87
2023/07/04 09:48:36;;;;;;;;;3.33;3.33;;;;;28.67;34.99;65471.53;4935420;28;45921;-88
2023/07/04 09:51:19;;;;;;;;;5.00;4.00;;;;;29.57;34.99;65603.13;4933020;28;45721;-84
2023/07/04 09:53:44;;;;;;;;;6.00;4.67;;;;;29.51;34.48;65899.19;4933184;28;45549;-88
2023/07/04 09:56:11;;;;;;;;;3.00;3.00;;;;;29.83;34.51;65708.69;4935051;28;46518;-82
2023/07/04 09:58:36;;;;;;;;;4.33;3.67;;;;;30.15;33.88;65814.47;4936091;28;46109;-85
2023/07/04 10:01:10;;;;;;;;;3.00;3.00;;;;;30.55;33.75;65844.84;4934473;28;45565;-86
2023/07/04 10:03:40;;;;;;;;;2.33;2.33;;;;;30.71;33.29;66051.13;4934441;28;45512;-82
2023/07/04 10:06:10;;;;;;;;;2.00;2.00;;;;;30.52;33.02;66266.94;4935351;28;46221;-83
2023/07/04 10:08:51;;;;;;;;;2.33;2.33;;;;;30.49;33.24;66353.53;4933815;28;45551;-83
2023/07/04 10:11:39;;;;;;;;;3.00;3.00;;;;;29.84;33.36;66553.84;4934180;28;45563;-85
2023/07/04 10:14:10;;;;;;;;;5.33;4.00;;;;;30.00;33.68;66661.47;4924865;28;45434;-84
2023/07/04 10:16:44;;;;;;;;;4.00;3.67;;;;;29.71;34.36;66732.44;4935839;28;46237;-82
2023/07/04 10:19:13;;;;;;;;;3.67;3.67;;;;;29.57;34.39;66802.00;4931356;28;45539;-82
2023/07/04 10:21:45;;;;;;;;;4.00;4.00;;;;;29.48;34.58;66799.88;4923053;28;45557;-82
2023/07/04 10:24:16;;;;;;;;;5.67;3.67;;;;;29.43;34.78;66780.50;4935794;28;45447;-83
2023/07/04 10:26:43;;;;;;;;;4.33;4.00;;;;;29.61;34.21;66820.19;4934641;28;45476;-83
2023/07/04 10:29:08;;;;;;;;;6.67;3.67;;;;;29.05;34.80;66642.91;4936351;28;45415;-83
2023/07/04 10:31:35;;;;;;;;;5.00;5.00;;;;;29.29;34.26;66838.00;4937280;28;45576;-84
2023/07/04 10:34:06;;;;;;;;;6.00;4.00;;;;;29.34;34.70;66811.63;4934345;28;45527;-90
2023/07/04 10:36:36;;;;;;;;;0.00;0.00;;;;;28.86;34.32;66814.94;4938282;28;45467;-88
2023/07/04 10:39:09;;;;;;;;;4.33;3.67;;;;;29.75;34.38;66868.34;4913794;28;46038;-86
2023/07/04 10:41:56;;;;;;;;;4.33;3.00;;;;;29.69;34.26;66888.16;4931585;28;45769;-84
2023/07/04 10:44:27;;;;;;;;;4.00;4.00;;;;;29.94;34.14;66843.22;4920408;28;45659;-82
2023/07/04 10:47:19;;;;;;;;;4.00;4.00;;;;;29.72;34.25;66657.31;4943580;28;47774;-83
2023/07/04 10:49:51;;;;;;;;;4.33;4.33;;;;;30.36;33.78;66685.09;4918225;28;45381;-88
2023/07/04 10:52:29;;;;;;;;;4.00;4.00;;;;;30.73;33.45;66612.16;4928934;28;45665;-93
2023/07/04 10:54:54;;;;;;;;;4.00;4.00;;;;;31.10;33.02;66740.63;4935920;28;45336;-86
2023/07/04 10:57:26;;;;;;;;;3.67;2.67;;;;;31.22;32.68;66767.97;4940379;28;46218;-89
2023/07/04 10:59:57;;;;;;;;;9.33;7.00;;;;;31.02;32.87;66892.56;4941655;28;45579;-88
2023/07/04 11:02:31;;;;;;;;;7.67;5.00;;;;;31.06;32.47;66962.66;4943510;28;45602;-91
2023/07/04 11:05:09;;;;;;;;;3.33;3.33;;;;;31.07;33.14;66909.19;4946450;28;45495;-85
2023/07/04 11:07:39;;;;;;;;;7.00;5.00;;;;;30.79;33.92;66722.72;4942933;28;46088;-93
2023/07/04 11:10:06;;;;;;;;;7.00;5.00;;;;;31.06;34.98;66484.91;4964040;28;45414;-92
2023/07/04 11:12:37;;;;;;;;;5.67;5.67;;;;;31.04;35.81;66294.25;4944304;28;45792;-87
2023/07/04 11:15:20;;;;;;;;;5.33;4.33;;;;;30.50;35.29;66199.78;4923465;28;45483;-88
2023/07/04 11:17:47;;;;;;;;;4.33;4.33;;;;;30.99;35.50;66319.19;4919936;28;47304;-87
2023/07/04 11:20:21;;;;;;;;;6.00;5.00;;;;;30.81;36.16;66375.13;4941789;28;45752;-90
2023/07/04 11:22:50;;;;;;;;;6.67;4.00;;;;;30.70;36.20;66246.44;4947689;28;45485;-84
2023/07/04 11:25:33;;;;;;;;;5.67;4.33;;;;;30.61;36.67;66058.94;4952185;28;45848;-85
2023/07/04 11:28:16;;;;;;;;;6.67;4.33;;;;;30.57;36.73;66111.69;4926175;28;47648;-86
2023/07/04 11:30:45;;;;;;;;;6.00;4.33;;;;;30.33;36.44;66357.75;4948616;28;45465;-86
2023/07/04 11:33:38;;;;;;;;;8.00;7.00;;;;;30.00;37.38;66094.59;4920385;28;45722;-89
2023/07/04 11:36:06;;;;;;;;;5.33;4.00;;;;;30.06;37.02;66287.28;4924479;28;45371;-86
2023/07/04 11:38:33;;;;;;;;;6.67;5.33;;;;;29.65;36.83;66431.94;4952719;28;47100;-86
2023/07/04 11:41:00;;;;;;;;;6.67;4.00;;;;;29.02;37.02;66503.41;4921763;28;45819;-89
2023/07/04 11:43:29;;;;;;;;;6.67;5.00;;;;;29.18;37.93;66518.41;4920939;28;45586;-87
2023/07/04 11:45:56;;;;;;;;;8.00;5.67;;;;;29.27;38.70;66256.44;4939060;28;45553;-81
2023/07/04 11:48:27;;;;;;;;;5.00;5.00;;;;;29.05;37.23;66646.19;4939397;28;47068;-81
2023/07/04 11:51:04;;;;;;;;;5.33;5.33;;;;;28.54;37.28;66727.19;4939159;28;45508;-85
2023/07/04 11:53:32;;;;;;;;;5.00;5.00;;;;;29.09;37.78;66516.84;4931206;28;45320;-85
2023/07/04 11:56:18;;;;;;;;;6.00;5.33;;;;;28.61;36.64;66681.38;4940334;28;45452;-88
2023/07/04 11:58:45;;;;;;;;;5.67;4.67;;;;;28.71;35.93;66860.91;4920874;28;47548;-86
2023/07/04 12:01:12;;;;;;;;;5.00;5.00;;;;;28.97;36.99;66767.09;4920607;28;45528;-84
2023/07/04 12:03:38;;;;;;;;;5.67;5.00;;;;;28.85;36.52;66992.81;4939099;28;45467;-85
2023/07/04 12:06:03;;;;;;;;;5.00;5.00;;;;;28.26;36.57;66921.88;4937109;28;45744;-85
2023/07/04 12:08:34;;;;;;;;;5.67;5.67;;;;;28.58;36.53;67045.09;4920453;28;48282;-86
2023/07/04 12:11:06;;;;;;;;;7.33;6.00;;;;;27.82;36.49;67149.03;4935639;28;46255;-85
2023/07/04 12:13:37;;;;;;;;;6.00;5.00;;;;;27.97;35.87;67334.78;4925595;28;45539;-87
2023/07/04 12:16:04;;;;;;;;;7.67;5.00;;;;;28.06;36.20;67227.75;4904589;28;45491;-84
2023/07/04 12:18:34;;;;;;;;;4.67;4.67;;;;;27.99;36.39;67285.47;4936014;28;45430;-85
2023/07/04 12:21:00;;;;;;;;;5.33;4.33;;;;;27.50;36.60;67293.09;4938669;28;45534;-85
2023/07/04 12:23:26;;;;;;;;;8.00;6.67;;;;;27.30;36.83;67460.00;4939151;28;45603;-85
2023/07/04 12:25:54;;;;;;;;;4.00;4.00;;;;;27.46;36.32;67568.13;4906288;28;45565;-85
2023/07/04 12:28:25;;;;;;;;;4.67;4.67;;;;;27.16;36.38;67639.78;4902557;28;48314;-88
2023/07/04 12:31:02;;;;;;;;;6.00;4.00;;;;;26.48;36.80;67603.22;4919575;28;45439;-87
2023/07/04 12:33:30;;;;;;;;;3.00;3.00;;;;;27.10;36.91;67663.22;4920001;28;45407;-87
2023/07/04 12:36:09;;;;;;;;;4.67;4.00;;;;;25.69;36.75;67557.78;4920005;28;45732;-86
2023/07/04 12:38:43;;;;;;;;;5.67;5.00;;;;;26.95;37.99;67504.75;4922395;28;46287;-87
2023/07/04 12:41:08;;;;;;;;;4.67;3.67;;;;;26.72;37.45;67513.94;4943363;28;45488;-84
2023/07/04 12:43:34;;;;;;;;;4.00;4.00;;;;;26.80;37.65;67473.78;4941533;28;45393;-89
2023/07/04 12:46:08;;;;;;;;;6.00;6.00;;;;;27.00;39.53;67052.03;4940853;28;45672;-81
2023/07/04 12:48:35;;;;;;;;;8.33;5.00;;;;;26.68;39.41;67081.41;4935683;28;45700;-81
2023/07/04 12:51:01;;;;;;;;;9.67;7.67;;;;;26.95;39.93;67035.97;4931520;28;45450;-81
2023/07/04 12:53:28;;;;;;;;;6.00;6.00;;;;;26.22;39.66;67086.47;4938141;28;45832;-82
2023/07/04 12:55:56;;;;;;;;;5.00;5.00;;;;;26.47;40.00;67111.41;4936755;28;45603;-81
2023/07/04 12:58:23;;;;;;;;;5.00;5.00;;;;;26.44;40.22;67065.16;4934123;28;45432;-81
2023/07/04 13:00:54;;;;;;;;;4.33;4.33;;;;;26.38;40.30;67057.69;4938154;28;45565;-81
2023/07/04 13:03:21;;;;;;;;;5.33;4.00;;;;;25.97;38.91;67293.31;4938664;28;45419;-82
2023/07/04 13:05:49;;;;;;;;;4.00;3.00;;;;;25.38;38.78;67268.00;4939279;28;45404;-82
2023/07/04 13:08:19;;;;;;;;;3.67;3.67;;;;;26.23;38.79;67372.16;4936485;28;46764;-83
2023/07/04 13:10:51;;;;;;;;;6.67;4.00;;;;;25.83;38.56;67423.94;4937210;28;45446;-84
2023/07/04 13:13:34;;;;;;;;;5.67;3.00;;;;;26.08;38.68;67404.13;4924081;28;45480;-83
2023/07/04 13:16:14;;;;;;;;;5.00;3.33;;;;;26.14;38.04;67486.38;4937257;28;45732;-83
2023/07/04 13:18:41;;;;;;;;;3.67;3.00;;;;;25.63;38.08;67585.44;4953029;28;46076;-89
2023/07/04 13:21:08;;;;;;;;;8.00;3.00;;;;;25.50;37.73;67638.59;4921903;28;46205;-88
2023/07/04 13:23:38;;;;;;;;;5.00;5.00;;;;;25.45;39.57;67321.50;4937908;28;46659;-84
2023/07/04 13:26:16;;;;;;;;;5.33;5.00;;;;;25.63;41.65;66865.31;4945716;28;45513;-85
2023/07/04 13:28:48;;;;;;;;;2.00;2.00;;;;;25.51;43.71;66229.09;4932833;28;46571;-87
2023/07/04 13:31:22;;;;;;;;;9.00;5.00;;;;;25.42;44.92;65338.03;4930254;28;46458;-86
2023/07/04 13:33:50;;;;;;;;;5.00;5.00;;;;;25.31;46.68;63470.25;4928385;28;45481;-84
2023/07/04 13:36:22;;;;;;;;;6.00;4.00;;;;;25.14;47.29;62077.38;4935622;28;45520;-84
2023/07/04 13:38:52;;;;;;;;;7.00;3.67;;;;;25.03;49.01;60032.69;4938036;28;46268;-87
2023/07/04 13:41:22;;;;;;;;;5.00;4.00;;;;;24.41;49.32;57039.25;4904994;28;45439;-86
2023/07/04 13:43:48;;;;;;;;;5.00;3.00;;;;;24.71;49.39;56428.97;4932529;28;45608;-84
2023/07/04 13:46:13;;;;;;;;;1.50;1.00;;;;;24.73;50.81;52192.34;4931126;28;45653;-84
2023/07/04 13:48:39;;;;;;;;;2.33;2.33;;;;;24.63;51.28;48095.13;4934615;28;46520;-85
2023/07/04 13:51:04;;;;;;;;;4.00;4.00;;;;;24.49;52.41;42655.09;4915633;28;45829;-84
2023/07/04 13:53:29;;;;;;;;;3.00;3.00;;;;;24.19;52.93;38978.88;4904417;28;45705;-85
2023/07/04 13:55:56;;;;;;;;;5.00;2.00;;;;;24.57;53.10;36434.53;4917164;28;45584;-84
2023/07/04 13:58:22;;;;;;;;;4.00;4.00;;;;;23.85;52.38;36948.25;4928702;28;45582;-84
2023/07/04 14:00:48;;;;;;;;;3.00;3.00;;;;;24.58;51.36;39249.38;4927443;28;45543;-87
2023/07/04 14:03:14;;;;;;;;;5.00;3.67;;;;;24.94;50.33;42905.88;4951846;28;45462;-85
2023/07/04 14:05:41;;;;;;;;;4.33;3.67;;;;;24.28;50.17;44067.78;4921128;28;45709;-87
2023/07/04 14:08:07;;;;;;;;;4.00;3.00;;;;;24.81;50.29;44008.69;4937236;28;45813;-86
2023/07/04 14:10:33;;;;;;;;;2.67;2.67;;;;;24.44;50.05;44542.69;4918906;28;45757;-86
2023/07/04 14:13:00;;;;;;;;;5.33;3.67;;;;;24.97;50.22;44230.41;4940970;28;45570;-84
2023/07/04 14:15:26;;;;;;;;;5.67;4.00;;;;;24.37;49.83;45256.81;4936260;28;45552;-84
2023/07/04 14:17:51;;;;;;;;;2.00;2.00;;;;;23.95;49.99;45159.78;4936758;28;45730;-85
2023/07/04 14:20:17;;;;;;;;;2.33;2.33;;;;;24.02;49.72;45735.09;4956374;28;45753;-85
2023/07/04 14:22:42;;;;;;;;;1.33;1.33;;;;;24.70;49.91;44685.50;4942266;28;46098;-85
2023/07/04 14:25:08;;;;;;;;;4.00;2.67;;;;;24.85;50.16;44603.59;4918274;28;45364;-84
2023/07/04 14:27:35;;;;;;;;;3.00;3.00;;;;;24.87;50.56;43916.16;4935036;28;48576;-84
2023/07/04 14:30:00;;;;;;;;;2.33;2.33;;;;;24.59;50.72;43970.53;4939694;28;45917;-88
2023/07/04 14:32:26;;;;;;;;;3.33;2.33;;;;;24.29;50.95;43182.38;4919739;28;45515;-86
2023/07/04 14:34:54;;;;;;;;;3.67;3.67;;;;;24.58;51.52;41546.94;4937476;28;45513;-85
2023/07/04 14:37:19;;;;;;;;;1.67;1.67;;;;;24.57;51.74;40842.75;4935608;28;45446;-87
2023/07/04 14:39:52;;;;;;;;;1.67;1.00;;;;;24.29;51.45;38523.78;4936252;28;45418;-86
2023/07/04 14:42:18;;;;;;;;;2.00;2.00;;;;;24.66;51.56;38041.28;4914785;28;46023;-90
2023/07/04 14:44:45;;;;;;;;;3.67;2.33;;;;;24.98;51.53;37866.63;4914834;28;45608;-84
2023/07/04 14:47:11;;;;;;;;;3.00;3.00;;;;;25.16;51.05;38437.31;4908586;28;48418;-85
2023/07/04 14:49:36;;;;;;;;;0.75;0.75;;;;;24.73;51.46;38534.78;4935765;28;45533;-86
2023/07/04 14:52:03;;;;;;;;;1.00;1.00;;;;;25.01;51.63;37898.16;4920233;28;46693;-87
2023/07/04 14:54:28;;;;;;;;;1.00;1.00;;;;;25.05;51.61;37426.03;4918054;28;46019;-85
2023/07/04 14:56:55;;;;;;;;;2.00;2.00;;;;;24.94;51.84;36173.53;4937473;28;46626;-86
2023/07/04 14:59:20;;;;;;;;;1.67;1.67;;;;;24.66;52.17;34447.47;4933704;28;45660;-84
2023/07/04 15:01:46;;;;;;;;;1.00;1.00;;;;;24.42;52.48;33308.22;4935267;28;45478;-84
2023/07/04 15:04:12;;;;;;;;;0.00;0.00;;;;;24.79;53.01;33195.47;4919291;28;45424;-87
2023/07/04 15:06:37;;;;;;;;;1.00;1.00;;;;;24.17;52.97;30988.56;4918968;28;48265;-85
2023/07/04 15:09:03;;;;;;;;;2.00;2.00;;;;;24.80;53.17;29814.78;4933044;28;45528;-88
2023/07/04 15:11:28;;;;;;;;;1.67;0.67;;;;;24.85;53.13;29153.31;4932892;28;45437;-84
2023/07/04 15:13:53;;;;;;;;;3.00;1.00;;;;;24.85;52.82;28082.53;4931062;28;46112;-83
2023/07/04 15:16:19;;;;;;;;;1.67;1.67;;;;;24.92;52.79;28605.34;4925251;28;48251;-84
2023/07/04 15:18:44;;;;;;;;;2.00;0.33;;;;;24.91;52.76;27715.66;4936148;28;45526;-83
2023/07/04 15:21:10;;;;;;;;;1.00;1.00;;;;;25.10;52.70;28692.19;4945585;28;45740;-83
2023/07/04 15:23:36;;;;;;;;;1.00;1.00;;;;;24.92;52.70;27667.97;4927649;28;45485;-82
2023/07/04 15:26:02;;;;;;;;;2.67;2.67;;;;;25.04;52.68;26884.44;4935130;28;46114;-82
2023/07/04 15:28:27;;;;;;;;;2.00;1.25;;;;;25.18;52.37;28310.34;4940561;28;45673;-83
2023/07/04 15:30:55;;;;;;;;;4.67;2.67;;;;;25.20;51.53;29425.94;4925391;28;45574;-83
2023/07/04 15:33:21;;;;;;;;;3.67;2.00;;;;;25.45;51.37;30495.66;4914382;28;45523;-81
2023/07/04 15:35:47;;;;;;;;;2.33;2.33;;;;;25.12;51.03;31027.09;4943657;28;45534;-84
2023/07/04 15:38:15;;;;;;;;;1.67;1.67;;;;;25.08;51.29;31876.97;4935278;28;45476;-87
2023/07/04 15:40:57;;;;;;;;;1.33;1.33;;;;;25.05;51.29;33832.88;4942146;28;46230;-94
2023/07/04 15:43:24;;;;;;;;;1.00;1.00;;;;;24.97;50.96;33940.97;4926788;28;45942;-85
2023/07/04 15:45:54;;;;;;;;;1.00;1.00;;;;;25.17;51.57;32968.16;4921354;28;48179;-89
2023/07/04 15:48:19;;;;;;;;;4.00;2.33;;;;;25.34;50.86;33614.09;4935269;28;45527;-88
2023/07/04 15:50:45;;;;;;;;;1.33;0.00;;;;;24.99;51.29;33687.41;4938811;28;45611;-86
2023/07/04 15:53:10;;;;;;;;;0.00;0.00;;;;;24.70;51.31;34479.75;4946841;28;45744;-86
2023/07/04 15:55:36;;;;;;;;;1.00;1.00;;;;;24.82;51.11;35489.84;4923105;28;47463;-92
2023/07/04 15:58:03;;;;;;;;;1.33;1.33;;;;;24.89;51.14;35000.41;4924895;28;45477;-91
2023/07/04 16:00:28;;;;;;;;;0.00;0.00;;;;;24.91;51.56;34360.69;4920320;28;45419;-93
2023/07/04 16:02:54;;;;;;;;;1.00;0.00;;;;;24.78;51.85;33347.97;4922733;28;45725;-89
2023/07/04 16:05:19;;;;;;;;;1.00;1.00;;;;;24.44;52.24;32476.34;4921860;28;47734;-89
2023/07/04 16:07:44;;;;;;;;;2.00;2.00;;;;;24.48;52.88;31870.38;4939352;28;45729;-89
2023/07/04 16:10:10;;;;;;;;;1.00;1.00;;;;;24.77;52.53;30383.63;4939159;28;45427;-91
2023/07/04 16:12:35;;;;;;;;;3.00;2.00;;;;;24.49;53.52;28411.91;4922333;28;45324;-90
2023/07/04 16:15:00;;;;;;;;;0.67;0.67;;;;;24.71;53.34;26498.91;4939338;28;45483;-90
2023/07/04 16:17:26;;;;;;;;;2.67;2.00;;;;;24.10;54.12;24441.94;4922676;28;45744;-90
2023/07/04 16:19:51;;;;;;;;;2.00;1.00;;;;;24.48;53.75;23344.19;4922823;28;45580;-89
2023/07/04 16:22:17;;;;;;;;;2.00;2.00;;;;;24.52;54.22;21293.97;4940794;28;45416;-92
2023/07/04 16:24:42;;;;;;;;;2.33;2.33;;;;;24.44;54.54;19240.09;4935711;28;46445;-92
2023/07/04 16:27:08;;;;;;;;;1.00;1.00;;;;;24.40;54.84;17189.34;4920516;28;45425;-92
2023/07/04 16:29:34;;;;;;;;;4.00;1.67;;;;;24.43;54.96;15483.25;4924856;28;45376;-89
2023/07/04 16:31:59;;;;;;;;;2.00;2.00;;;;;23.96;55.30;14786.81;4946341;28;45472;-89
2023/07/04 16:34:25;;;;;;;;;2.00;2.00;;;;;24.64;55.55;12758.69;4944193;28;46415;-87
2023/07/04 16:36:52;;;;;;;;;2.00;2.00;;;;;24.22;55.30;12065.94;4938743;28;45621;-87
2023/07/04 16:39:18;;;;;;;;;3.33;2.00;;;;;24.62;55.17;11393.66;4939498;28;45468;-89
2023/07/04 16:41:45;;;;;;;;;1.25;1.25;;;;;24.16;55.52;10019.56;4940397;28;45574;-89
2023/07/04 16:44:10;;;;;;;;;2.00;2.00;;;;;24.50;55.45;10708.66;4938913;28;46652;-88
2023/07/04 16:46:35;;;;;;;;;3.00;2.00;;;;;24.28;55.65;10022.19;4920572;28;45769;-88
2023/07/04 16:49:00;;;;;;;;;2.67;2.33;;;;;24.23;56.08;8317.78;4953008;28;45436;-87
2023/07/04 16:51:26;;;;;;;;;2.00;2.00;;;;;23.53;55.97;7624.28;4921683;28;45484;-87
2023/07/04 16:53:51;;;;;;;;;2.00;2.00;;;;;23.39;55.90;5921.66;4938398;28;46730;-87
2023/07/04 16:56:16;;;;;;;;;12.67;11.00;;;;;23.63;56.33;5245.06;4937996;28;45443;-87
2023/07/04 16:58:42;;;;;;;;;2.67;2.67;;;;;23.48;56.97;3883.53;4938854;28;45432;-86